sensor_id;sensor_type;location;lat;lon;timestamp;P1;durP1;ratioP1;P2;durP2;ratioP2
938;SDS011;456;53.584;9.968;2023-10-19T00:00:45;4.87;;;4.47;;
938;SDS011;456;53.584;9.968;2023-10-19T00:03:14;6.00;;;4.60;;
938;SDS011;456;53.584;9.968;2023-10-19T00:05:40;4.27;;;3.97;;
938;SDS011;456;53.584;9.968;2023-10-19T00:08:06;5.40;;;5.00;;
938;SDS011;456;53.584;9.968;2023-10-19T00:10:47;5.27;;;4.77;;
938;SDS011;456;53.584;9.968;2023-10-19T00:13:15;5.23;;;4.83;;
938;SDS011;456;53.584;9.968;2023-10-19T00:15:44;4.80;;;4.40;;
938;SDS011;456;53.584;9.968;2023-10-19T00:18:19;4.47;;;4.07;;
938;SDS011;456;53.584;9.968;2023-10-19T00:20:48;5.27;;;4.80;;
938;SDS011;456;53.584;9.968;2023-10-19T00:23:17;5.50;;;5.00;;
938;SDS011;456;53.584;9.968;2023-10-19T00:25:46;5.10;;;4.70;;
938;SDS011;456;53.584;9.968;2023-10-19T00:28:19;5.20;;;4.70;;
938;SDS011;456;53.584;9.968;2023-10-19T00:30:47;4.80;;;4.50;;
938;SDS011;456;53.584;9.968;2023-10-19T00:33:16;5.17;;;4.67;;
938;SDS011;456;53.584;9.968;2023-10-19T00:35:47;5.60;;;5.10;;
938;SDS011;456;53.584;9.968;2023-10-19T00:38:21;4.67;;;4.37;;
938;SDS011;456;53.584;9.968;2023-10-19T00:40:59;5.23;;;4.83;;
938;SDS011;456;53.584;9.968;2023-10-19T00:43:40;5.30;;;4.87;;
938;SDS011;456;53.584;9.968;2023-10-19T00:48:54;5.70;;;5.20;;
938;SDS011;456;53.584;9.968;2023-10-19T00:51:22;6.10;;;5.60;;
938;SDS011;456;53.584;9.968;2023-10-19T00:53:53;5.93;;;5.43;;
938;SDS011;456;53.584;9.968;2023-10-19T00:56:20;6.60;;;5.80;;
938;SDS011;456;53.584;9.968;2023-10-19T00:58:48;5.10;;;4.70;;
938;SDS011;456;53.584;9.968;2023-10-19T01:01:22;5.57;;;5.07;;
938;SDS011;456;53.584;9.968;2023-10-19T01:03:50;5.73;;;5.07;;
938;SDS011;456;53.584;9.968;2023-10-19T01:06:21;6.57;;;5.90;;
938;SDS011;456;53.584;9.968;2023-10-19T01:08:47;5.93;;;5.43;;
938;SDS011;456;53.584;9.968;2023-10-19T01:11:16;6.30;;;5.70;;
938;SDS011;456;53.584;9.968;2023-10-19T01:13:45;5.20;;;4.80;;
938;SDS011;456;53.584;9.968;2023-10-19T01:16:16;5.57;;;5.07;;
938;SDS011;456;53.584;9.968;2023-10-19T01:18:51;5.50;;;5.00;;
938;SDS011;456;53.584;9.968;2023-10-19T01:21:21;6.23;;;5.57;;
938;SDS011;456;53.584;9.968;2023-10-19T01:23:49;6.20;;;5.60;;
938;SDS011;456;53.584;9.968;2023-10-19T01:26:15;5.93;;;5.27;;
938;SDS011;456;53.584;9.968;2023-10-19T01:28:51;6.30;;;5.47;;
938;SDS011;456;53.584;9.968;2023-10-19T01:31:26;5.47;;;4.97;;
938;SDS011;456;53.584;9.968;2023-10-19T01:33:52;6.40;;;5.90;;
938;SDS011;456;53.584;9.968;2023-10-19T01:36:20;5.57;;;5.03;;
938;SDS011;456;53.584;9.968;2023-10-19T01:38:47;6.23;;;5.60;;
938;SDS011;456;53.584;9.968;2023-10-19T01:41:13;6.60;;;6.10;;
938;SDS011;456;53.584;9.968;2023-10-19T01:43:43;7.80;;;6.07;;
938;SDS011;456;53.584;9.968;2023-10-19T01:46:10;6.17;;;5.57;;
938;SDS011;456;53.584;9.968;2023-10-19T01:48:46;6.20;;;5.70;;
938;SDS011;456;53.584;9.968;2023-10-19T01:51:14;6.90;;;5.60;;
938;SDS011;456;53.584;9.968;2023-10-19T01:53:40;5.97;;;5.40;;
938;SDS011;456;53.584;9.968;2023-10-19T01:56:13;6.77;;;5.90;;
938;SDS011;456;53.584;9.968;2023-10-19T01:58:39;6.00;;;5.50;;
938;SDS011;456;53.584;9.968;2023-10-19T02:01:06;6.30;;;5.80;;
938;SDS011;456;53.584;9.968;2023-10-19T02:03:39;6.17;;;5.70;;
938;SDS011;456;53.584;9.968;2023-10-19T02:06:12;6.00;;;5.40;;
938;SDS011;456;53.584;9.968;2023-10-19T02:08:45;6.10;;;5.60;;
938;SDS011;456;53.584;9.968;2023-10-19T02:11:21;6.17;;;5.03;;
938;SDS011;456;53.584;9.968;2023-10-19T02:13:48;6.20;;;5.70;;
938;SDS011;456;53.584;9.968;2023-10-19T02:16:18;7.23;;;6.53;;
938;SDS011;456;53.584;9.968;2023-10-19T02:18:47;6.73;;;5.97;;
938;SDS011;456;53.584;9.968;2023-10-19T02:21:13;8.27;;;5.70;;
938;SDS011;456;53.584;9.968;2023-10-19T02:23:39;6.00;;;5.50;;
938;SDS011;456;53.584;9.968;2023-10-19T02:26:08;5.80;;;5.30;;
938;SDS011;456;53.584;9.968;2023-10-19T02:28:37;7.10;;;6.50;;
938;SDS011;456;53.584;9.968;2023-10-19T02:31:04;8.43;;;6.50;;
938;SDS011;456;53.584;9.968;2023-10-19T02:33:40;5.80;;;5.30;;
938;SDS011;456;53.584;9.968;2023-10-19T02:36:06;6.53;;;5.93;;
938;SDS011;456;53.584;9.968;2023-10-19T02:38:38;6.67;;;5.93;;
938;SDS011;456;53.584;9.968;2023-10-19T02:41:04;7.47;;;6.77;;
938;SDS011;456;53.584;9.968;2023-10-19T02:43:30;5.83;;;5.33;;
938;SDS011;456;53.584;9.968;2023-10-19T02:45:58;7.03;;;6.40;;
938;SDS011;456;53.584;9.968;2023-10-19T02:48:27;6.30;;;5.80;;
938;SDS011;456;53.584;9.968;2023-10-19T02:50:53;8.63;;;6.20;;
938;SDS011;456;53.584;9.968;2023-10-19T02:53:19;6.27;;;5.70;;
938;SDS011;456;53.584;9.968;2023-10-19T02:55:45;6.10;;;5.60;;
938;SDS011;456;53.584;9.968;2023-10-19T02:58:11;7.27;;;6.67;;
938;SDS011;456;53.584;9.968;2023-10-19T03:00:38;7.00;;;6.40;;
938;SDS011;456;53.584;9.968;2023-10-19T03:03:05;6.87;;;6.13;;
938;SDS011;456;53.584;9.968;2023-10-19T03:05:31;7.27;;;6.67;;
938;SDS011;456;53.584;9.968;2023-10-19T03:07:59;6.50;;;6.00;;
938;SDS011;456;53.584;9.968;2023-10-19T03:10:25;6.40;;;5.90;;
938;SDS011;456;53.584;9.968;2023-10-19T03:13:07;6.93;;;6.33;;
938;SDS011;456;53.584;9.968;2023-10-19T03:15:34;7.37;;;6.67;;
938;SDS011;456;53.584;9.968;2023-10-19T03:18:00;6.53;;;5.93;;
938;SDS011;456;53.584;9.968;2023-10-19T03:20:28;7.23;;;6.57;;
938;SDS011;456;53.584;9.968;2023-10-19T03:22:54;7.03;;;6.50;;
938;SDS011;456;53.584;9.968;2023-10-19T03:25:24;7.50;;;6.80;;
938;SDS011;456;53.584;9.968;2023-10-19T03:28:09;7.00;;;6.30;;
938;SDS011;456;53.584;9.968;2023-10-19T03:30:37;7.60;;;6.90;;
938;SDS011;456;53.584;9.968;2023-10-19T03:33:06;6.50;;;5.90;;
938;SDS011;456;53.584;9.968;2023-10-19T03:35:37;6.90;;;6.20;;
938;SDS011;456;53.584;9.968;2023-10-19T03:38:06;6.40;;;5.80;;
938;SDS011;456;53.584;9.968;2023-10-19T03:40:39;6.53;;;5.93;;
938;SDS011;456;53.584;9.968;2023-10-19T03:43:05;6.90;;;6.30;;
938;SDS011;456;53.584;9.968;2023-10-19T03:45:42;6.20;;;5.60;;
938;SDS011;456;53.584;9.968;2023-10-19T03:48:12;8.23;;;6.80;;
938;SDS011;456;53.584;9.968;2023-10-19T03:50:40;7.23;;;6.53;;
938;SDS011;456;53.584;9.968;2023-10-19T03:53:07;7.33;;;6.23;;
938;SDS011;456;53.584;9.968;2023-10-19T03:55:37;6.73;;;6.13;;
938;SDS011;456;53.584;9.968;2023-10-19T03:58:03;7.30;;;6.60;;
938;SDS011;456;53.584;9.968;2023-10-19T04:00:30;6.80;;;6.20;;
938;SDS011;456;53.584;9.968;2023-10-19T04:02:58;7.10;;;6.43;;
938;SDS011;456;53.584;9.968;2023-10-19T04:05:26;6.67;;;6.07;;
938;SDS011;456;53.584;9.968;2023-10-19T04:07:53;5.70;;;5.20;;
938;SDS011;456;53.584;9.968;2023-10-19T04:10:22;5.40;;;4.90;;
938;SDS011;456;53.584;9.968;2023-10-19T04:12:54;5.40;;;5.00;;
938;SDS011;456;53.584;9.968;2023-10-19T04:15:20;5.47;;;5.07;;
938;SDS011;456;53.584;9.968;2023-10-19T04:17:47;5.00;;;4.50;;
938;SDS011;456;53.584;9.968;2023-10-19T04:20:15;5.33;;;4.83;;
938;SDS011;456;53.584;9.968;2023-10-19T04:22:41;5.50;;;5.00;;
938;SDS011;456;53.584;9.968;2023-10-19T04:25:07;5.73;;;5.23;;
938;SDS011;456;53.584;9.968;2023-10-19T04:27:37;5.97;;;5.40;;
938;SDS011;456;53.584;9.968;2023-10-19T04:30:03;5.93;;;5.30;;
938;SDS011;456;53.584;9.968;2023-10-19T04:32:29;6.13;;;5.30;;
938;SDS011;456;53.584;9.968;2023-10-19T04:34:57;5.43;;;4.93;;
938;SDS011;456;53.584;9.968;2023-10-19T04:37:23;5.63;;;5.13;;
938;SDS011;456;53.584;9.968;2023-10-19T04:39:49;4.97;;;4.47;;
938;SDS011;456;53.584;9.968;2023-10-19T04:42:16;6.47;;;5.87;;
938;SDS011;456;53.584;9.968;2023-10-19T04:44:44;6.03;;;5.40;;
938;SDS011;456;53.584;9.968;2023-10-19T04:47:10;7.10;;;5.57;;
938;SDS011;456;53.584;9.968;2023-10-19T04:49:37;5.70;;;5.20;;
938;SDS011;456;53.584;9.968;2023-10-19T04:52:03;5.83;;;5.23;;
938;SDS011;456;53.584;9.968;2023-10-19T04:54:29;6.67;;;5.90;;
938;SDS011;456;53.584;9.968;2023-10-19T04:56:55;5.80;;;5.30;;
938;SDS011;456;53.584;9.968;2023-10-19T04:59:21;6.00;;;5.40;;
938;SDS011;456;53.584;9.968;2023-10-19T05:01:47;5.40;;;4.90;;
938;SDS011;456;53.584;9.968;2023-10-19T05:04:15;5.23;;;4.73;;
938;SDS011;456;53.584;9.968;2023-10-19T05:06:42;6.13;;;5.53;;
938;SDS011;456;53.584;9.968;2023-10-19T05:09:08;6.33;;;5.77;;
938;SDS011;456;53.584;9.968;2023-10-19T05:11:34;5.27;;;4.70;;
938;SDS011;456;53.584;9.968;2023-10-19T05:14:00;6.60;;;5.77;;
938;SDS011;456;53.584;9.968;2023-10-19T05:16:26;6.00;;;5.50;;
938;SDS011;456;53.584;9.968;2023-10-19T05:18:52;5.93;;;5.43;;
938;SDS011;456;53.584;9.968;2023-10-19T05:21:18;5.53;;;5.03;;
938;SDS011;456;53.584;9.968;2023-10-19T05:23:44;7.13;;;5.23;;
938;SDS011;456;53.584;9.968;2023-10-19T05:26:10;5.33;;;4.93;;
938;SDS011;456;53.584;9.968;2023-10-19T05:28:39;7.83;;;5.70;;
938;SDS011;456;53.584;9.968;2023-10-19T05:31:07;5.77;;;5.27;;
938;SDS011;456;53.584;9.968;2023-10-19T05:33:33;6.30;;;5.70;;
938;SDS011;456;53.584;9.968;2023-10-19T05:35:59;6.10;;;5.50;;
938;SDS011;456;53.584;9.968;2023-10-19T05:38:26;5.43;;;4.93;;
938;SDS011;456;53.584;9.968;2023-10-19T05:40:52;5.40;;;4.90;;
938;SDS011;456;53.584;9.968;2023-10-19T05:43:20;5.73;;;5.20;;
938;SDS011;456;53.584;9.968;2023-10-19T05:45:46;6.03;;;5.53;;
938;SDS011;456;53.584;9.968;2023-10-19T05:48:15;6.20;;;5.60;;
938;SDS011;456;53.584;9.968;2023-10-19T05:50:41;5.50;;;5.00;;
938;SDS011;456;53.584;9.968;2023-10-19T05:53:07;6.07;;;5.57;;
938;SDS011;456;53.584;9.968;2023-10-19T05:55:34;6.10;;;5.60;;
938;SDS011;456;53.584;9.968;2023-10-19T05:58:01;5.30;;;4.90;;
938;SDS011;456;53.584;9.968;2023-10-19T06:00:29;7.20;;;5.67;;
938;SDS011;456;53.584;9.968;2023-10-19T06:02:56;5.87;;;5.27;;
938;SDS011;456;53.584;9.968;2023-10-19T06:05:22;5.90;;;5.03;;
938;SDS011;456;53.584;9.968;2023-10-19T06:07:49;5.90;;;5.30;;
938;SDS011;456;53.584;9.968;2023-10-19T06:10:17;6.17;;;5.67;;
938;SDS011;456;53.584;9.968;2023-10-19T06:12:47;5.67;;;5.27;;
938;SDS011;456;53.584;9.968;2023-10-19T06:15:16;6.10;;;5.50;;
938;SDS011;456;53.584;9.968;2023-10-19T06:17:43;5.77;;;5.27;;
938;SDS011;456;53.584;9.968;2023-10-19T06:20:11;5.73;;;5.23;;
938;SDS011;456;53.584;9.968;2023-10-19T06:22:52;5.00;;;4.60;;
938;SDS011;456;53.584;9.968;2023-10-19T06:25:20;6.90;;;5.40;;
938;SDS011;456;53.584;9.968;2023-10-19T06:27:47;6.07;;;5.50;;
938;SDS011;456;53.584;9.968;2023-10-19T06:30:14;6.17;;;5.63;;
938;SDS011;456;53.584;9.968;2023-10-19T06:32:50;6.10;;;5.60;;
938;SDS011;456;53.584;9.968;2023-10-19T06:35:17;5.90;;;5.40;;
938;SDS011;456;53.584;9.968;2023-10-19T06:37:43;5.90;;;5.40;;
938;SDS011;456;53.584;9.968;2023-10-19T06:40:10;5.77;;;5.33;;
938;SDS011;456;53.584;9.968;2023-10-19T06:42:37;5.50;;;5.00;;
938;SDS011;456;53.584;9.968;2023-10-19T06:45:03;6.53;;;5.90;;
938;SDS011;456;53.584;9.968;2023-10-19T06:47:29;4.87;;;4.47;;
938;SDS011;456;53.584;9.968;2023-10-19T06:49:55;6.50;;;5.90;;
938;SDS011;456;53.584;9.968;2023-10-19T06:52:22;5.53;;;4.93;;
938;SDS011;456;53.584;9.968;2023-10-19T06:54:48;5.13;;;4.73;;
938;SDS011;456;53.584;9.968;2023-10-19T06:57:14;5.70;;;5.20;;
938;SDS011;456;53.584;9.968;2023-10-19T06:59:40;6.03;;;5.43;;
938;SDS011;456;53.584;9.968;2023-10-19T07:02:06;5.73;;;5.23;;
938;SDS011;456;53.584;9.968;2023-10-19T07:04:33;5.60;;;5.20;;
938;SDS011;456;53.584;9.968;2023-10-19T07:06:59;5.40;;;4.90;;
938;SDS011;456;53.584;9.968;2023-10-19T07:09:25;5.57;;;5.07;;
938;SDS011;456;53.584;9.968;2023-10-19T07:11:51;5.70;;;5.07;;
938;SDS011;456;53.584;9.968;2023-10-19T07:14:19;5.63;;;5.13;;
938;SDS011;456;53.584;9.968;2023-10-19T07:16:47;5.63;;;5.13;;
938;SDS011;456;53.584;9.968;2023-10-19T07:19:14;5.83;;;5.20;;
938;SDS011;456;53.584;9.968;2023-10-19T07:21:40;5.80;;;5.40;;
938;SDS011;456;53.584;9.968;2023-10-19T07:24:08;5.83;;;5.33;;
938;SDS011;456;53.584;9.968;2023-10-19T07:26:36;5.67;;;5.17;;
938;SDS011;456;53.584;9.968;2023-10-19T07:29:16;5.83;;;5.30;;
938;SDS011;456;53.584;9.968;2023-10-19T07:31:44;5.37;;;4.93;;
938;SDS011;456;53.584;9.968;2023-10-19T07:34:10;5.80;;;5.23;;
938;SDS011;456;53.584;9.968;2023-10-19T07:36:40;5.77;;;5.27;;
938;SDS011;456;53.584;9.968;2023-10-19T07:39:07;6.23;;;5.63;;
938;SDS011;456;53.584;9.968;2023-10-19T07:41:39;5.97;;;5.47;;
938;SDS011;456;53.584;9.968;2023-10-19T07:44:05;6.47;;;5.87;;
938;SDS011;456;53.584;9.968;2023-10-19T07:46:31;6.00;;;5.40;;
938;SDS011;456;53.584;9.968;2023-10-19T07:48:57;5.63;;;5.03;;
938;SDS011;456;53.584;9.968;2023-10-19T07:51:25;6.63;;;5.23;;
938;SDS011;456;53.584;9.968;2023-10-19T07:53:51;5.50;;;5.10;;
938;SDS011;456;53.584;9.968;2023-10-19T07:56:18;5.73;;;5.23;;
938;SDS011;456;53.584;9.968;2023-10-19T07:58:44;6.83;;;6.23;;
938;SDS011;456;53.584;9.968;2023-10-19T08:01:11;5.90;;;5.40;;
938;SDS011;456;53.584;9.968;2023-10-19T08:03:37;6.37;;;5.67;;
938;SDS011;456;53.584;9.968;2023-10-19T08:06:03;5.67;;;5.27;;
938;SDS011;456;53.584;9.968;2023-10-19T08:08:29;5.93;;;5.43;;
938;SDS011;456;53.584;9.968;2023-10-19T08:10:59;5.90;;;5.40;;
938;SDS011;456;53.584;9.968;2023-10-19T08:13:25;5.77;;;5.20;;
938;SDS011;456;53.584;9.968;2023-10-19T08:15:52;6.07;;;5.47;;
938;SDS011;456;53.584;9.968;2023-10-19T08:18:18;5.90;;;5.40;;
938;SDS011;456;53.584;9.968;2023-10-19T08:20:45;5.70;;;5.20;;
938;SDS011;456;53.584;9.968;2023-10-19T08:23:11;5.50;;;5.10;;
938;SDS011;456;53.584;9.968;2023-10-19T08:25:43;6.10;;;5.50;;
938;SDS011;456;53.584;9.968;2023-10-19T08:28:09;4.83;;;4.40;;
938;SDS011;456;53.584;9.968;2023-10-19T08:30:36;5.00;;;4.60;;
938;SDS011;456;53.584;9.968;2023-10-19T08:33:02;6.23;;;5.73;;
938;SDS011;456;53.584;9.968;2023-10-19T08:35:29;5.30;;;4.80;;
938;SDS011;456;53.584;9.968;2023-10-19T08:37:56;5.40;;;4.90;;
938;SDS011;456;53.584;9.968;2023-10-19T08:40:25;6.20;;;5.67;;
938;SDS011;456;53.584;9.968;2023-10-19T08:42:52;5.30;;;4.80;;
938;SDS011;456;53.584;9.968;2023-10-19T08:45:19;5.23;;;4.77;;
938;SDS011;456;53.584;9.968;2023-10-19T08:47:56;4.90;;;4.40;;
938;SDS011;456;53.584;9.968;2023-10-19T08:50:26;5.80;;;5.30;;
938;SDS011;456;53.584;9.968;2023-10-19T08:52:53;5.63;;;5.13;;
938;SDS011;456;53.584;9.968;2023-10-19T08:55:20;5.37;;;4.87;;
938;SDS011;456;53.584;9.968;2023-10-19T08:57:49;5.23;;;4.73;;
938;SDS011;456;53.584;9.968;2023-10-19T09:00:16;5.00;;;4.60;;
938;SDS011;456;53.584;9.968;2023-10-19T09:02:43;6.27;;;5.67;;
938;SDS011;456;53.584;9.968;2023-10-19T09:05:09;5.20;;;4.70;;
938;SDS011;456;53.584;9.968;2023-10-19T09:07:45;4.73;;;4.33;;
938;SDS011;456;53.584;9.968;2023-10-19T09:10:15;5.30;;;4.80;;
938;SDS011;456;53.584;9.968;2023-10-19T09:12:41;5.37;;;4.90;;
938;SDS011;456;53.584;9.968;2023-10-19T09:20:45;5.17;;;4.67;;
938;SDS011;456;53.584;9.968;2023-10-19T09:23:18;5.20;;;4.80;;
938;SDS011;456;53.584;9.968;2023-10-19T09:25:45;4.90;;;4.50;;
938;SDS011;456;53.584;9.968;2023-10-19T09:28:11;5.90;;;5.30;;
938;SDS011;456;53.584;9.968;2023-10-19T09:30:39;5.10;;;4.60;;
938;SDS011;456;53.584;9.968;2023-10-19T09:33:05;5.43;;;5.03;;
938;SDS011;456;53.584;9.968;2023-10-19T09:35:32;5.03;;;4.63;;
938;SDS011;456;53.584;9.968;2023-10-19T09:37:58;4.80;;;4.40;;
938;SDS011;456;53.584;9.968;2023-10-19T09:40:25;4.80;;;4.40;;
938;SDS011;456;53.584;9.968;2023-10-19T09:42:54;5.60;;;5.10;;
938;SDS011;456;53.584;9.968;2023-10-19T09:45:22;4.80;;;4.47;;
938;SDS011;456;53.584;9.968;2023-10-19T09:47:52;5.03;;;4.63;;
938;SDS011;456;53.584;9.968;2023-10-19T09:50:19;5.83;;;4.80;;
938;SDS011;456;53.584;9.968;2023-10-19T09:52:45;5.50;;;5.00;;
938;SDS011;456;53.584;9.968;2023-10-19T09:57:53;5.13;;;4.70;;
938;SDS011;456;53.584;9.968;2023-10-19T10:00:21;5.67;;;4.80;;
938;SDS011;456;53.584;9.968;2023-10-19T10:02:51;4.53;;;4.20;;
938;SDS011;456;53.584;9.968;2023-10-19T10:10:49;5.10;;;4.60;;
938;SDS011;456;53.584;9.968;2023-10-19T10:16:14;6.43;;;5.83;;
938;SDS011;456;53.584;9.968;2023-10-19T10:18:41;5.87;;;5.27;;
938;SDS011;456;53.584;9.968;2023-10-19T10:23:42;5.97;;;5.27;;
938;SDS011;456;53.584;9.968;2023-10-19T10:26:09;5.10;;;4.70;;
938;SDS011;456;53.584;9.968;2023-10-19T10:28:35;5.47;;;4.97;;
938;SDS011;456;53.584;9.968;2023-10-19T10:33:37;5.50;;;5.10;;
938;SDS011;456;53.584;9.968;2023-10-19T10:36:05;5.13;;;4.67;;
938;SDS011;456;53.584;9.968;2023-10-19T10:38:34;6.10;;;5.50;;
938;SDS011;456;53.584;9.968;2023-10-19T10:41:00;5.07;;;4.63;;
938;SDS011;456;53.584;9.968;2023-10-19T10:43:27;5.00;;;4.60;;
938;SDS011;456;53.584;9.968;2023-10-19T10:46:14;5.67;;;5.27;;
938;SDS011;456;53.584;9.968;2023-10-19T10:48:42;5.13;;;4.73;;
938;SDS011;456;53.584;9.968;2023-10-19T10:51:15;5.50;;;5.00;;
938;SDS011;456;53.584;9.968;2023-10-19T10:53:41;5.20;;;4.80;;
938;SDS011;456;53.584;9.968;2023-10-19T10:56:07;5.47;;;5.03;;
938;SDS011;456;53.584;9.968;2023-10-19T10:58:33;5.60;;;5.10;;
938;SDS011;456;53.584;9.968;2023-10-19T11:00:59;5.13;;;4.73;;
938;SDS011;456;53.584;9.968;2023-10-19T11:03:25;5.67;;;5.27;;
938;SDS011;456;53.584;9.968;2023-10-19T11:05:55;5.57;;;5.10;;
938;SDS011;456;53.584;9.968;2023-10-19T11:08:23;5.60;;;5.10;;
938;SDS011;456;53.584;9.968;2023-10-19T11:10:49;5.30;;;4.90;;
938;SDS011;456;53.584;9.968;2023-10-19T11:13:16;4.97;;;4.50;;
938;SDS011;456;53.584;9.968;2023-10-19T11:15:49;5.90;;;5.40;;
938;SDS011;456;53.584;9.968;2023-10-19T11:18:28;5.23;;;4.77;;
938;SDS011;456;53.584;9.968;2023-10-19T11:20:55;5.27;;;4.80;;
938;SDS011;456;53.584;9.968;2023-10-19T11:23:34;4.77;;;4.37;;
938;SDS011;456;53.584;9.968;2023-10-19T11:26:01;5.90;;;5.30;;
938;SDS011;456;53.584;9.968;2023-10-19T11:28:27;5.23;;;4.83;;
938;SDS011;456;53.584;9.968;2023-10-19T11:30:55;5.60;;;5.10;;
938;SDS011;456;53.584;9.968;2023-10-19T11:33:21;6.17;;;5.57;;
938;SDS011;456;53.584;9.968;2023-10-19T11:35:49;5.30;;;4.90;;
938;SDS011;456;53.584;9.968;2023-10-19T11:38:15;5.90;;;5.40;;
938;SDS011;456;53.584;9.968;2023-10-19T11:40:43;5.83;;;5.43;;
938;SDS011;456;53.584;9.968;2023-10-19T11:43:09;5.50;;;5.10;;
938;SDS011;456;53.584;9.968;2023-10-19T11:45:35;6.00;;;5.50;;
938;SDS011;456;53.584;9.968;2023-10-19T11:48:01;5.50;;;4.83;;
938;SDS011;456;53.584;9.968;2023-10-19T11:50:27;6.57;;;5.63;;
938;SDS011;456;53.584;9.968;2023-10-19T11:52:53;5.10;;;4.60;;
938;SDS011;456;53.584;9.968;2023-10-19T11:55:21;5.57;;;5.17;;
938;SDS011;456;53.584;9.968;2023-10-19T11:57:47;6.10;;;5.50;;
938;SDS011;456;53.584;9.968;2023-10-19T12:00:13;6.60;;;6.00;;
938;SDS011;456;53.584;9.968;2023-10-19T12:02:45;5.60;;;5.20;;
938;SDS011;456;53.584;9.968;2023-10-19T12:05:11;5.40;;;5.00;;
938;SDS011;456;53.584;9.968;2023-10-19T12:07:37;5.70;;;5.20;;
938;SDS011;456;53.584;9.968;2023-10-19T12:10:07;5.90;;;5.40;;
938;SDS011;456;53.584;9.968;2023-10-19T12:12:34;5.50;;;5.10;;
938;SDS011;456;53.584;9.968;2023-10-19T12:15:00;5.17;;;4.77;;
938;SDS011;456;53.584;9.968;2023-10-19T12:17:27;5.77;;;5.23;;
938;SDS011;456;53.584;9.968;2023-10-19T12:19:55;5.70;;;5.20;;
938;SDS011;456;53.584;9.968;2023-10-19T12:22:21;5.30;;;4.83;;
938;SDS011;456;53.584;9.968;2023-10-19T12:24:47;5.93;;;5.43;;
938;SDS011;456;53.584;9.968;2023-10-19T12:27:13;5.13;;;4.73;;
938;SDS011;456;53.584;9.968;2023-10-19T12:29:40;6.00;;;5.20;;
938;SDS011;456;53.584;9.968;2023-10-19T12:32:06;5.57;;;5.07;;
938;SDS011;456;53.584;9.968;2023-10-19T12:34:32;5.63;;;5.20;;
938;SDS011;456;53.584;9.968;2023-10-19T12:36:58;5.33;;;4.90;;
938;SDS011;456;53.584;9.968;2023-10-19T12:39:24;6.00;;;5.50;;
938;SDS011;456;53.584;9.968;2023-10-19T12:42:00;6.10;;;5.60;;
938;SDS011;456;53.584;9.968;2023-10-19T12:44:27;5.60;;;5.10;;
938;SDS011;456;53.584;9.968;2023-10-19T12:47:03;5.77;;;5.37;;
938;SDS011;456;53.584;9.968;2023-10-19T12:49:34;4.80;;;4.43;;
938;SDS011;456;53.584;9.968;2023-10-19T12:52:00;5.50;;;5.00;;
938;SDS011;456;53.584;9.968;2023-10-19T12:54:28;5.97;;;5.47;;
938;SDS011;456;53.584;9.968;2023-10-19T12:56:54;5.60;;;5.20;;
938;SDS011;456;53.584;9.968;2023-10-19T12:59:21;5.57;;;5.07;;
938;SDS011;456;53.584;9.968;2023-10-19T13:01:47;5.07;;;4.67;;
938;SDS011;456;53.584;9.968;2023-10-19T13:04:17;5.13;;;4.73;;
938;SDS011;456;53.584;9.968;2023-10-19T13:06:44;4.93;;;4.53;;
938;SDS011;456;53.584;9.968;2023-10-19T13:09:12;5.43;;;5.03;;
938;SDS011;456;53.584;9.968;2023-10-19T13:11:40;4.70;;;4.33;;
938;SDS011;456;53.584;9.968;2023-10-19T13:14:10;5.30;;;4.80;;
938;SDS011;456;53.584;9.968;2023-10-19T13:16:37;4.93;;;4.53;;
938;SDS011;456;53.584;9.968;2023-10-19T13:19:03;5.00;;;4.60;;
938;SDS011;456;53.584;9.968;2023-10-19T13:21:38;5.60;;;5.20;;
938;SDS011;456;53.584;9.968;2023-10-19T13:24:04;4.67;;;4.27;;
938;SDS011;456;53.584;9.968;2023-10-19T13:26:31;4.90;;;4.47;;
938;SDS011;456;53.584;9.968;2023-10-19T13:28:57;5.23;;;4.73;;
938;SDS011;456;53.584;9.968;2023-10-19T13:31:23;5.00;;;4.60;;
938;SDS011;456;53.584;9.968;2023-10-19T13:33:51;5.40;;;4.97;;
938;SDS011;456;53.584;9.968;2023-10-19T13:36:17;4.20;;;3.90;;
938;SDS011;456;53.584;9.968;2023-10-19T13:38:44;4.90;;;4.50;;
938;SDS011;456;53.584;9.968;2023-10-19T13:41:10;4.70;;;4.30;;
938;SDS011;456;53.584;9.968;2023-10-19T13:43:36;5.03;;;4.53;;
938;SDS011;456;53.584;9.968;2023-10-19T13:46:02;5.30;;;4.90;;
938;SDS011;456;53.584;9.968;2023-10-19T13:48:29;4.87;;;4.47;;
938;SDS011;456;53.584;9.968;2023-10-19T13:50:56;4.63;;;4.33;;
938;SDS011;456;53.584;9.968;2023-10-19T13:53:25;5.23;;;4.73;;
938;SDS011;456;53.584;9.968;2023-10-19T13:55:51;5.57;;;5.07;;
938;SDS011;456;53.584;9.968;2023-10-19T13:58:18;4.77;;;4.37;;
938;SDS011;456;53.584;9.968;2023-10-19T14:00:44;5.27;;;4.80;;
938;SDS011;456;53.584;9.968;2023-10-19T14:03:11;5.10;;;4.70;;
938;SDS011;456;53.584;9.968;2023-10-19T14:05:45;4.50;;;4.20;;
938;SDS011;456;53.584;9.968;2023-10-19T14:08:16;5.53;;;5.13;;
938;SDS011;456;53.584;9.968;2023-10-19T14:10:42;4.80;;;4.40;;
938;SDS011;456;53.584;9.968;2023-10-19T14:13:08;5.40;;;4.90;;
938;SDS011;456;53.584;9.968;2023-10-19T14:15:36;4.87;;;4.47;;
938;SDS011;456;53.584;9.968;2023-10-19T14:18:02;5.00;;;4.60;;
938;SDS011;456;53.584;9.968;2023-10-19T14:20:29;4.90;;;4.50;;
938;SDS011;456;53.584;9.968;2023-10-19T14:22:56;4.43;;;4.13;;
938;SDS011;456;53.584;9.968;2023-10-19T14:25:22;4.83;;;4.50;;
938;SDS011;456;53.584;9.968;2023-10-19T14:27:49;4.83;;;4.43;;
938;SDS011;456;53.584;9.968;2023-10-19T14:30:16;4.43;;;4.03;;
938;SDS011;456;53.584;9.968;2023-10-19T14:32:45;5.17;;;4.50;;
938;SDS011;456;53.584;9.968;2023-10-19T14:35:18;4.40;;;4.10;;
938;SDS011;456;53.584;9.968;2023-10-19T14:37:45;4.63;;;4.23;;
938;SDS011;456;53.584;9.968;2023-10-19T14:40:12;4.43;;;4.03;;
938;SDS011;456;53.584;9.968;2023-10-19T14:42:39;4.30;;;3.90;;
938;SDS011;456;53.584;9.968;2023-10-19T14:45:08;4.93;;;4.53;;
938;SDS011;456;53.584;9.968;2023-10-19T14:47:37;5.27;;;4.77;;
938;SDS011;456;53.584;9.968;2023-10-19T14:50:06;4.83;;;4.40;;
938;SDS011;456;53.584;9.968;2023-10-19T14:52:33;4.50;;;4.10;;
938;SDS011;456;53.584;9.968;2023-10-19T14:54:59;5.23;;;4.77;;
938;SDS011;456;53.584;9.968;2023-10-19T14:57:26;5.10;;;4.70;;
938;SDS011;456;53.584;9.968;2023-10-19T14:59:52;4.23;;;3.93;;
938;SDS011;456;53.584;9.968;2023-10-19T15:02:18;5.33;;;4.93;;
938;SDS011;456;53.584;9.968;2023-10-19T15:04:48;5.10;;;4.70;;
938;SDS011;456;53.584;9.968;2023-10-19T15:07:14;5.03;;;4.63;;
938;SDS011;456;53.584;9.968;2023-10-19T15:09:40;4.37;;;4.07;;
938;SDS011;456;53.584;9.968;2023-10-19T15:12:06;5.43;;;4.93;;
938;SDS011;456;53.584;9.968;2023-10-19T15:14:32;4.27;;;3.93;;
938;SDS011;456;53.584;9.968;2023-10-19T15:16:58;4.60;;;4.23;;
938;SDS011;456;53.584;9.968;2023-10-19T15:19:24;5.07;;;4.67;;
938;SDS011;456;53.584;9.968;2023-10-19T15:21:50;4.47;;;4.17;;
938;SDS011;456;53.584;9.968;2023-10-19T15:24:16;4.80;;;4.40;;
938;SDS011;456;53.584;9.968;2023-10-19T15:26:43;4.80;;;4.47;;
938;SDS011;456;53.584;9.968;2023-10-19T15:29:09;4.47;;;4.07;;
938;SDS011;456;53.584;9.968;2023-10-19T15:31:35;4.60;;;4.20;;
938;SDS011;456;53.584;9.968;2023-10-19T15:34:01;4.60;;;4.30;;
938;SDS011;456;53.584;9.968;2023-10-19T15:36:27;4.80;;;4.40;;
938;SDS011;456;53.584;9.968;2023-10-19T15:38:53;4.57;;;4.27;;
938;SDS011;456;53.584;9.968;2023-10-19T15:41:19;4.93;;;4.53;;
938;SDS011;456;53.584;9.968;2023-10-19T15:43:46;4.23;;;3.93;;
938;SDS011;456;53.584;9.968;2023-10-19T15:46:12;4.93;;;4.53;;
938;SDS011;456;53.584;9.968;2023-10-19T15:48:38;4.73;;;4.33;;
938;SDS011;456;53.584;9.968;2023-10-19T15:51:05;5.13;;;4.73;;
938;SDS011;456;53.584;9.968;2023-10-19T15:53:34;4.77;;;4.37;;
938;SDS011;456;53.584;9.968;2023-10-19T15:56:02;4.33;;;4.03;;
938;SDS011;456;53.584;9.968;2023-10-19T15:58:28;4.30;;;4.00;;
938;SDS011;456;53.584;9.968;2023-10-19T16:00:54;4.50;;;4.20;;
938;SDS011;456;53.584;9.968;2023-10-19T16:03:20;4.27;;;3.97;;
938;SDS011;456;53.584;9.968;2023-10-19T16:05:46;4.60;;;4.20;;
938;SDS011;456;53.584;9.968;2023-10-19T16:08:12;4.83;;;4.43;;
938;SDS011;456;53.584;9.968;2023-10-19T16:10:38;4.93;;;4.30;;
938;SDS011;456;53.584;9.968;2023-10-19T16:13:05;4.53;;;4.20;;